Fjordprinsessen — LJVE — position and weather

sailwx.info

Track history (hours):
 
Tides and Currents Weather Stations Pressure Air Temp Water Temp Dewpoint Dewpoint Depression Visibility Wind Speed Wind Dir Waves Ship Positions

Fjordprinsessen

Last reported at 2015-Mar-04 16:22 UTC. Time now 2015-Mar-04 16:52 UTC.
Position N 66°21' E 012°60'.

Length 30 m; draft 2.9 m.

Type: High speed craft. MMSI: 259604000.

Date/timePositionNaut miles runAvg speedWind from/ knotsBaromVisibWave heightAir tempDewpointWater temp
2015-Mar-04 16:22N 66°21' E 012°60'3 1.4
2015-Mar-04 14:14N 66°18' E 012°57'913.4
2015-Mar-04 13:33N 66°25' E 012°43'1615.4
2015-Mar-04 12:32N 66°30' E 012°06'1515.1
2015-Mar-04 11:34N 66°22' E 012°37'1511.8
2015-Mar-04 10:19N 66°08' E 012°50'11 3.7
2015-Mar-04 07:21N 66°19' E 012°59'911.3
2015-Mar-04 06:33N 66°23' E 012°39'1514.9
2015-Mar-04 05:33N 66°30' E 012°06'6 0.7
2015-Mar-03 21:04N 66°35' E 012°13'816.1
2015-Mar-03 20:34N 66°27' E 012°11'1211.5
2015-Mar-03 19:33N 66°22' E 012°37'1514.1
2015-Mar-03 18:28N 66°34' E 012°14'1213.3
2015-Mar-03 17:33N 66°22' E 012°22'1513.4
2015-Mar-03 16:26N 66°21' E 012°60'19 2.3
2015-Mar-03 08:06N 66°03' E 012°39'1520.6
2015-Mar-03 07:21N 66°17' E 012°56'911.2
2015-Mar-03 06:33N 66°23' E 012°41'1515.4
2015-Mar-03 05:33N 66°30' E 012°06'6 0.7
2015-Mar-02 21:10N 66°35' E 012°13'812.8
2015-Mar-02 20:33N 66°27' E 012°10'20 0.4
2015-Feb-28 20:25N 66°12' E 012°39'1315.1
2015-Feb-28 19:34N 66°24' E 012°30'8 7.4
2015-Feb-28 18:29N 66°24' E 012°49'1111.2
2015-Feb-28 17:30N 66°22' E 012°22'1514.4
2015-Feb-28 16:27N 66°20' E 012°60'4 0.5
2015-Feb-28 07:22N 66°16' E 012°56'1011.9
2015-Feb-28 06:33N 66°23' E 012°38'6 6.0
2015-Feb-28 05:30N 66°22' E 012°22'0 0.0
2015-Feb-28 04:30N 66°22' E 012°22'0 0.0
2015-Feb-28 03:30N 66°22' E 012°22'0 0.0
2015-Feb-28 02:30N 66°22' E 012°22'0 0.0
2015-Feb-28 01:30N 66°22' E 012°22'0 0.0
2015-Feb-28 00:30N 66°22' E 012°22'0 0.0
2015-Feb-27 23:30N 66°22' E 012°22'0 0.0
2015-Feb-27 22:30N 66°22' E 012°22'0 0.0
2015-Feb-27 21:29N 66°22' E 012°22'0 0.0
2015-Feb-27 20:29N 66°22' E 012°22'6 6.2
2015-Feb-27 19:33N 66°22' E 012°37'5 5.4
2015-Feb-27 18:33N 66°24' E 012°49'1010.5
2015-Feb-27 17:33N 66°22' E 012°24'1512.6
2015-Feb-27 16:24N 66°20' E 012°60'4 2.1
2015-Feb-27 14:17N 66°16' E 012°56'810.7
2015-Feb-27 13:33N 66°24' E 012°49'1 1.5
2015-Feb-27 12:33N 66°24' E 012°46'4 4.2
2015-Feb-27 11:33N 66°22' E 012°37'1412.9
2015-Feb-27 10:30N 66°12' E 013°00'6 2.0
2015-Feb-27 07:23N 66°18' E 012°57'910.4
2015-Feb-27 06:33N 66°23' E 012°40'7 6.9
2015-Feb-27 05:32N 66°22' E 012°22'0 0.0
2015-Feb-27 04:31N 66°22' E 012°22'0 0.0
2015-Feb-27 03:31N 66°22' E 012°22'0 0.0
2015-Feb-27 02:31N 66°22' E 012°22'0 0.0
2015-Feb-27 01:31N 66°22' E 012°22'0 0.0
2015-Feb-27 00:31N 66°22' E 012°22'0 0.0
2015-Feb-26 23:31N 66°22' E 012°22'0 0.0
2015-Feb-26 22:31N 66°22' E 012°22'0 0.0
2015-Feb-26 21:31N 66°22' E 012°22'0 0.0
2015-Feb-26 20:31N 66°22' E 012°22'6 6.0
2015-Feb-26 19:33N 66°22' E 012°37'5 5.5
2015-Feb-26 18:33N 66°24' E 012°49'10 9.8
2015-Feb-26 17:34N 66°23' E 012°25'1412.7
2015-Feb-26 16:27N 66°21' E 012°60'4 0.4
2015-Feb-26 07:24N 66°17' E 012°56'911.0
2015-Feb-26 06:33N 66°23' E 012°39'1514.9
2015-Feb-26 05:33N 66°30' E 012°06'6 0.6
2015-Feb-25 20:14N 66°35' E 012°13'1624.3
2015-Feb-25 19:34N 66°22' E 012°37'1614.7
2015-Feb-25 18:28N 66°34' E 012°12'1314.2
2015-Feb-25 17:33N 66°22' E 012°22'1514.8
2015-Feb-25 16:32N 66°21' E 012°60'9 3.1
2015-Feb-25 13:33N 66°26' E 012°40'1414.1
2015-Feb-25 12:34N 66°30' E 012°06'1615.9
2015-Feb-25 11:33N 66°23' E 012°42'1612.5
2015-Feb-25 10:17N 66°07' E 012°48'10 3.4
2015-Feb-25 07:21N 66°17' E 012°56'911.4
2015-Feb-25 06:34N 66°23' E 012°40'1514.6
2015-Feb-25 05:33N 66°30' E 012°09'1 0.1
2015-Feb-24 20:33N 66°30' E 012°06'1211.6
2015-Feb-24 19:33N 66°24' E 012°31'1311.8
2015-Feb-24 18:28N 66°35' E 012°12'1314.6
2015-Feb-24 17:34N 66°22' E 012°22'1313.2
2015-Feb-24 16:33N 66°21' E 012°55'4 0.5
2015-Feb-24 07:26N 66°17' E 012°56'910.6
2015-Feb-24 06:34N 66°23' E 012°40'1515.0
2015-Feb-24 05:33N 66°30' E 012°06'5 0.6
2015-Feb-23 20:12N 66°35' E 012°13'1625.1
2015-Feb-23 19:34N 66°22' E 012°37'1313.0
2015-Feb-23 18:33N 66°33' E 012°18'1110.8
2015-Feb-23 17:34N 66°22' E 012°23'1514.1
2015-Feb-23 16:29N 66°20' E 012°60'4 0.5
2015-Feb-23 07:24N 66°16' E 012°57'911.3
2015-Feb-23 06:34N 66°23' E 012°40'1515.2
2015-Feb-23 05:33N 66°30' E 012°06'6 4.4
2015-Feb-23 04:15N 66°35' E 012°13'0 0.0
2015-Feb-22 21:06N 66°35' E 012°13'1425.2
2015-Feb-22 20:33N 66°24' E 012°34'11 7.5
2015-Feb-22 19:03N 66°18' E 012°57'713.9
2015-Feb-22 18:33N 66°24' E 012°48'1817.6
2015-Feb-22 17:33N 66°30' E 012°08'6 6.3
2015-Feb-22 16:33N 66°31' E 012°23'  
Track history (hours):
 
Tides and Currents Weather Stations Pressure Air Temp Water Temp Dewpoint Dewpoint Depression Visibility Wind Speed Wind Dir Waves Ship Positions

Fjordprinsessen

Last reported at 2015-Mar-04 16:22 UTC. Time now 2015-Mar-04 16:52 UTC.
Position N 66°21' E 012°60'.

Length 30 m; draft 2.9 m.

Type: High speed craft. MMSI: 259604000.

Date/timePositionNaut miles runAvg speedWind from/ knotsBaromVisibWave heightAir tempDewpointWater temp
2015-Mar-04 16:22N 66°21' E 012°60'3 1.4
2015-Mar-04 14:14N 66°18' E 012°57'913.4
2015-Mar-04 13:33N 66°25' E 012°43'1615.4
2015-Mar-04 12:32N 66°30' E 012°06'1515.1
2015-Mar-04 11:34N 66°22' E 012°37'1511.8
2015-Mar-04 10:19N 66°08' E 012°50'11 3.7
2015-Mar-04 07:21N 66°19' E 012°59'911.3
2015-Mar-04 06:33N 66°23' E 012°39'1514.9
2015-Mar-04 05:33N 66°30' E 012°06'6 0.7
2015-Mar-03 21:04N 66°35' E 012°13'816.1
2015-Mar-03 20:34N 66°27' E 012°11'1211.5
2015-Mar-03 19:33N 66°22' E 012°37'1514.1
2015-Mar-03 18:28N 66°34' E 012°14'1213.3
2015-Mar-03 17:33N 66°22' E 012°22'1513.4
2015-Mar-03 16:26N 66°21' E 012°60'19 2.3
2015-Mar-03 08:06N 66°03' E 012°39'1520.6
2015-Mar-03 07:21N 66°17' E 012°56'911.2
2015-Mar-03 06:33N 66°23' E 012°41'1515.4
2015-Mar-03 05:33N 66°30' E 012°06'6 0.7
2015-Mar-02 21:10N 66°35' E 012°13'812.8
2015-Mar-02 20:33N 66°27' E 012°10'20 0.4
2015-Feb-28 20:25N 66°12' E 012°39'1315.1
2015-Feb-28 19:34N 66°24' E 012°30'8 7.4
2015-Feb-28 18:29N 66°24' E 012°49'1111.2
2015-Feb-28 17:30N 66°22' E 012°22'1514.4
2015-Feb-28 16:27N 66°20' E 012°60'4 0.5
2015-Feb-28 07:22N 66°16' E 012°56'1011.9
2015-Feb-28 06:33N 66°23' E 012°38'6 6.0
2015-Feb-28 05:30N 66°22' E 012°22'0 0.0
2015-Feb-28 04:30N 66°22' E 012°22'0 0.0
2015-Feb-28 03:30N 66°22' E 012°22'0 0.0
2015-Feb-28 02:30N 66°22' E 012°22'0 0.0
2015-Feb-28 01:30N 66°22' E 012°22'0 0.0
2015-Feb-28 00:30N 66°22' E 012°22'0 0.0
2015-Feb-27 23:30N 66°22' E 012°22'0 0.0
2015-Feb-27 22:30N 66°22' E 012°22'0 0.0
2015-Feb-27 21:29N 66°22' E 012°22'0 0.0
2015-Feb-27 20:29N 66°22' E 012°22'6 6.2
2015-Feb-27 19:33N 66°22' E 012°37'5 5.4
2015-Feb-27 18:33N 66°24' E 012°49'1010.5
2015-Feb-27 17:33N 66°22' E 012°24'1512.6
2015-Feb-27 16:24N 66°20' E 012°60'4 2.1
2015-Feb-27 14:17N 66°16' E 012°56'810.7
2015-Feb-27 13:33N 66°24' E 012°49'1 1.5
2015-Feb-27 12:33N 66°24' E 012°46'4 4.2
2015-Feb-27 11:33N 66°22' E 012°37'1412.9
2015-Feb-27 10:30N 66°12' E 013°00'6 2.0
2015-Feb-27 07:23N 66°18' E 012°57'910.4
2015-Feb-27 06:33N 66°23' E 012°40'7 6.9
2015-Feb-27 05:32N 66°22' E 012°22'0 0.0
2015-Feb-27 04:31N 66°22' E 012°22'0 0.0
2015-Feb-27 03:31N 66°22' E 012°22'0 0.0
2015-Feb-27 02:31N 66°22' E 012°22'0 0.0
2015-Feb-27 01:31N 66°22' E 012°22'0 0.0
2015-Feb-27 00:31N 66°22' E 012°22'0 0.0
2015-Feb-26 23:31N 66°22' E 012°22'0 0.0
2015-Feb-26 22:31N 66°22' E 012°22'0 0.0
2015-Feb-26 21:31N 66°22' E 012°22'0 0.0
2015-Feb-26 20:31N 66°22' E 012°22'6 6.0
2015-Feb-26 19:33N 66°22' E 012°37'5 5.5
2015-Feb-26 18:33N 66°24' E 012°49'10 9.8
2015-Feb-26 17:34N 66°23' E 012°25'1412.7
2015-Feb-26 16:27N 66°21' E 012°60'4 0.4
2015-Feb-26 07:24N 66°17' E 012°56'911.0
2015-Feb-26 06:33N 66°23' E 012°39'1514.9
2015-Feb-26 05:33N 66°30' E 012°06'6 0.6
2015-Feb-25 20:14N 66°35' E 012°13'1624.3
2015-Feb-25 19:34N 66°22' E 012°37'1614.7
2015-Feb-25 18:28N 66°34' E 012°12'1314.2
2015-Feb-25 17:33N 66°22' E 012°22'1514.8
2015-Feb-25 16:32N 66°21' E 012°60'9 3.1
2015-Feb-25 13:33N 66°26' E 012°40'1414.1
2015-Feb-25 12:34N 66°30' E 012°06'1615.9
2015-Feb-25 11:33N 66°23' E 012°42'1612.5
2015-Feb-25 10:17N 66°07' E 012°48'10 3.4
2015-Feb-25 07:21N 66°17' E 012°56'911.4
2015-Feb-25 06:34N 66°23' E 012°40'1514.6
2015-Feb-25 05:33N 66°30' E 012°09'1 0.1
2015-Feb-24 20:33N 66°30' E 012°06'1211.6
2015-Feb-24 19:33N 66°24' E 012°31'1311.8
2015-Feb-24 18:28N 66°35' E 012°12'1314.6
2015-Feb-24 17:34N 66°22' E 012°22'1313.2
2015-Feb-24 16:33N 66°21' E 012°55'4 0.5
2015-Feb-24 07:26N 66°17' E 012°56'910.6
2015-Feb-24 06:34N 66°23' E 012°40'1515.0
2015-Feb-24 05:33N 66°30' E 012°06'5 0.6
2015-Feb-23 20:12N 66°35' E 012°13'1625.1
2015-Feb-23 19:34N 66°22' E 012°37'1313.0
2015-Feb-23 18:33N 66°33' E 012°18'1110.8
2015-Feb-23 17:34N 66°22' E 012°23'1514.1
2015-Feb-23 16:29N 66°20' E 012°60'4 0.5
2015-Feb-23 07:24N 66°16' E 012°57'911.3
2015-Feb-23 06:34N 66°23' E 012°40'1515.2
2015-Feb-23 05:33N 66°30' E 012°06'6 4.4
2015-Feb-23 04:15N 66°35' E 012°13'0 0.0
2015-Feb-22 21:06N 66°35' E 012°13'1425.2
2015-Feb-22 20:33N 66°24' E 012°34'11 7.5
2015-Feb-22 19:03N 66°18' E 012°57'713.9
2015-Feb-22 18:33N 66°24' E 012°48'1817.6
2015-Feb-22 17:33N 66°30' E 012°08'6 6.3
2015-Feb-22 16:33N 66°31' E 012°23'  

Dump ship's entire track history